createdAt,value
2019-02-05T00:02:01.115Z,72.93
2019-02-05T00:04:27.983Z,70.43
2019-02-05T00:06:54.812Z,63.27
2019-02-05T00:09:21.549Z,65.10
2019-02-05T00:11:48.297Z,67.23
2019-02-05T00:14:15.039Z,68.67
2019-02-05T00:16:42.089Z,65.33
2019-02-05T00:19:08.782Z,70.30
2019-02-05T00:21:35.554Z,54.40
2019-02-05T00:24:02.301Z,48.40
2019-02-05T00:26:29.040Z,53.90
2019-02-05T00:28:56.008Z,55.87
2019-02-05T00:31:22.723Z,58.70
2019-02-05T00:33:49.863Z,58.77
2019-02-05T00:36:16.617Z,65.07
2019-02-05T00:38:43.345Z,79.00
2019-02-05T00:41:10.184Z,58.20
2019-02-05T00:43:36.933Z,68.23
2019-02-05T00:46:03.660Z,52.20
2019-02-05T00:48:30.412Z,79.97
2019-02-05T00:50:57.255Z,66.47
2019-02-05T00:53:24.396Z,49.03
2019-02-05T00:55:51.093Z,68.00
2019-02-05T00:58:17.884Z,66.37
2019-02-05T01:00:44.612Z,80.47
2019-02-05T01:03:11.356Z,61.93
2019-02-05T01:05:38.193Z,54.83
2019-02-05T01:08:04.933Z,62.10
2019-02-05T01:10:31.776Z,66.30
2019-02-05T01:12:58.628Z,91.00
2019-02-05T01:15:25.568Z,62.40
2019-02-05T01:17:52.399Z,63.67
2019-02-05T01:20:19.261Z,87.30
2019-02-05T01:22:46.083Z,74.27
2019-02-05T01:25:12.934Z,77.37
2019-02-05T01:27:39.697Z,65.50
2019-02-05T01:30:06.824Z,65.27
2019-02-05T01:32:33.689Z,96.83
2019-02-05T01:35:00.635Z,65.47
2019-02-05T01:37:27.553Z,48.33
2019-02-05T01:39:54.393Z,55.53
2019-02-05T01:42:21.531Z,56.03
2019-02-05T01:44:48.282Z,64.97
2019-02-05T01:47:15.432Z,63.63
2019-02-05T01:49:42.164Z,60.63
2019-02-05T01:52:08.907Z,48.50
2019-02-05T01:54:35.740Z,49.50
2019-02-05T01:57:02.594Z,74.70
2019-02-05T01:59:29.286Z,49.13
2019-02-05T02:01:56.081Z,65.00
2019-02-05T02:04:22.803Z,60.13
2019-02-05T02:06:49.846Z,51.47
2019-02-05T02:09:16.601Z,56.77
2019-02-05T02:11:43.326Z,62.17
2019-02-05T02:14:10.177Z,61.67
2019-02-05T02:16:36.875Z,47.17
2019-02-05T02:19:03.749Z,60.87
2019-02-05T02:21:30.891Z,42.77
2019-02-05T02:23:57.981Z,44.23
2019-02-05T02:26:24.888Z,44.97
2019-02-05T02:28:51.639Z,42.97
2019-02-05T02:31:18.476Z,41.50
2019-02-05T02:33:45.390Z,53.33
2019-02-05T02:36:12.167Z,37.67
2019-02-05T02:38:39.003Z,32.40
2019-02-05T02:41:05.735Z,41.03
2019-02-05T02:43:33.191Z,41.67
2019-02-05T02:45:59.888Z,40.93
2019-02-05T02:48:26.681Z,38.13
2019-02-05T02:50:53.611Z,43.27
2019-02-05T02:53:20.353Z,43.07
2019-02-05T02:55:47.298Z,35.30
2019-02-05T02:58:14.037Z,40.50
2019-02-05T03:00:40.773Z,42.83
2019-02-05T03:03:08.127Z,37.33
2019-02-05T03:05:34.868Z,37.77
2019-02-05T03:08:01.917Z,52.40
2019-02-05T03:10:28.652Z,44.13
2019-02-05T03:12:55.406Z,49.80
2019-02-05T03:15:22.345Z,42.17
2019-02-05T03:17:49.074Z,47.17
2019-02-05T03:20:16.237Z,42.07
2019-02-05T03:22:45.341Z,41.77
2019-02-05T03:25:11.665Z,45.57
2019-02-05T03:27:38.779Z,40.57
2019-02-05T03:30:05.548Z,45.17
2019-02-05T03:32:32.310Z,58.73
2019-02-05T03:34:59.133Z,60.13
2019-02-05T03:37:25.974Z,45.90
2019-02-05T03:39:52.695Z,33.17
2019-02-05T03:42:19.530Z,44.37
2019-02-05T03:44:46.380Z,47.30
2019-02-05T03:47:13.435Z,52.93
2019-02-05T03:49:40.168Z,46.60
2019-02-05T03:52:06.917Z,35.20
2019-02-05T03:54:33.653Z,41.70
2019-02-05T03:57:00.602Z,43.07
2019-02-05T03:59:27.444Z,42.90
2019-02-05T04:01:54.170Z,40.70
2019-02-05T04:04:20.911Z,44.73
2019-02-05T04:06:48.164Z,42.90
2019-02-05T04:09:15.000Z,47.83
2019-02-05T04:11:41.743Z,42.00
2019-02-05T04:14:08.685Z,46.63
2019-02-05T04:16:35.424Z,39.47
2019-02-05T04:19:02.177Z,39.40
2019-02-05T04:21:29.015Z,41.20
2019-02-05T04:23:55.756Z,37.67
2019-02-05T04:26:22.894Z,60.30
2019-02-05T04:28:49.745Z,45.80
2019-02-05T04:31:16.482Z,45.00
2019-02-05T04:33:43.317Z,46.00
2019-02-05T04:36:10.064Z,47.83
2019-02-05T04:38:36.805Z,57.50
2019-02-05T04:41:03.650Z,40.27
2019-02-05T04:43:30.383Z,47.23
2019-02-05T04:45:57.626Z,54.83
2019-02-05T04:48:24.368Z,42.57
2019-02-05T04:50:51.109Z,73.70
2019-02-05T04:53:17.846Z,48.40
2019-02-05T04:55:44.596Z,42.30
2019-02-05T04:58:11.439Z,40.13
2019-02-05T05:00:38.166Z,40.00
2019-02-05T05:03:04.914Z,44.23
2019-02-05T05:05:31.655Z,40.17
2019-02-05T05:07:58.496Z,34.90
2019-02-05T05:10:25.343Z,30.30
2019-02-05T05:12:52.280Z,34.00
2019-02-05T05:15:19.022Z,35.60
2019-02-05T05:17:45.753Z,37.07
2019-02-05T05:20:12.487Z,40.37
2019-02-05T05:22:39.333Z,46.80
2019-02-05T05:25:06.440Z,52.43
2019-02-05T05:27:33.231Z,57.13
2019-02-05T05:30:00.155Z,27.13
2019-02-05T05:32:27.106Z,39.90
2019-02-05T05:34:53.960Z,40.47
2019-02-05T05:37:20.804Z,44.53
2019-02-05T05:39:47.531Z,36.87
2019-02-05T05:42:14.289Z,37.33
2019-02-05T05:44:41.502Z,39.73
2019-02-05T05:47:08.375Z,34.77
2019-02-05T05:49:35.112Z,46.70
2019-02-05T05:52:01.851Z,41.60
2019-02-05T05:54:28.691Z,34.27
2019-02-05T05:56:55.533Z,48.23
2019-02-05T05:59:22.378Z,46.37
2019-02-05T06:01:49.206Z,31.60
2019-02-05T06:04:15.911Z,53.37
2019-02-05T06:06:43.107Z,37.43
2019-02-05T06:09:09.951Z,30.60
2019-02-05T06:11:36.790Z,35.77
2019-02-05T06:14:03.527Z,38.07
2019-02-05T06:16:30.380Z,41.73
2019-02-05T06:18:57.100Z,34.47
2019-02-05T06:21:23.951Z,30.13
2019-02-05T06:23:50.794Z,31.20
2019-02-05T06:26:20.201Z,35.03
2019-02-05T06:28:46.328Z,29.83
2019-02-05T06:31:13.049Z,24.63
2019-02-05T06:33:39.796Z,38.93
2019-02-05T06:36:06.642Z,31.77
2019-02-05T06:38:33.881Z,31.80
2019-02-05T06:41:00.624Z,32.97
2019-02-05T06:43:27.574Z,37.67
2019-02-05T06:45:54.641Z,35.53
2019-02-05T06:48:21.486Z,30.67
2019-02-05T06:50:48.207Z,33.80
2019-02-05T06:53:15.044Z,29.17
2019-02-05T06:55:41.889Z,26.40
2019-02-05T06:58:08.626Z,32.93
2019-02-05T07:00:36.004Z,32.33
2019-02-05T07:03:02.986Z,26.57
2019-02-05T07:05:30.065Z,28.57
2019-02-05T07:07:56.806Z,34.23
2019-02-05T07:10:23.541Z,30.90
2019-02-05T07:12:50.385Z,30.83
2019-02-05T07:15:17.237Z,32.10
2019-02-05T07:17:50.003Z,51.77
2019-02-05T07:20:12.758Z,43.67
2019-02-05T07:22:39.495Z,44.80
2019-02-05T07:25:06.444Z,42.13
2019-02-05T07:27:33.589Z,34.13
2019-02-05T07:30:00.325Z,28.10
2019-02-05T07:32:27.076Z,52.80
2019-02-05T07:34:53.828Z,36.00
2019-02-05T07:37:20.665Z,37.93
2019-02-05T07:39:47.385Z,35.27
2019-02-05T07:42:14.336Z,30.57
2019-02-05T07:44:41.483Z,32.03
2019-02-05T07:47:08.328Z,34.20
2019-02-05T07:49:35.472Z,36.17
2019-02-05T07:52:02.187Z,65.00
2019-02-05T07:54:28.949Z,34.37
2019-02-05T07:56:55.799Z,48.77
2019-02-05T07:59:22.541Z,29.83
2019-02-05T08:01:49.382Z,26.97
2019-02-05T08:04:16.413Z,35.57
2019-02-05T08:06:43.266Z,48.63
2019-02-05T08:09:10.009Z,31.93
2019-02-05T08:11:37.244Z,29.67
2019-02-05T08:14:06.080Z,34.73
2019-02-05T08:16:34.034Z,28.83
2019-02-05T08:19:00.860Z,29.87
2019-02-05T08:21:27.693Z,36.70
2019-02-05T08:23:54.428Z,41.87
2019-02-05T08:26:21.282Z,30.73
2019-02-05T08:28:48.122Z,35.83
2019-02-05T08:31:14.973Z,47.50
2019-02-05T08:33:42.015Z,28.23
2019-02-05T08:36:09.040Z,39.60
2019-02-05T08:38:35.891Z,31.37
2019-02-05T08:41:02.628Z,29.27
2019-02-05T08:43:29.512Z,27.50
2019-02-05T08:45:57.105Z,37.23
2019-02-05T08:48:23.828Z,30.33
2019-02-05T08:50:50.722Z,44.07
2019-02-05T08:53:17.550Z,35.87
2019-02-05T08:55:44.668Z,48.03
2019-02-05T08:58:11.464Z,36.97
2019-02-05T09:00:38.179Z,56.30
2019-02-05T09:03:05.026Z,34.67
2019-02-05T09:05:31.874Z,28.67
2019-02-05T09:07:58.715Z,36.07
2019-02-05T09:10:25.557Z,29.97
2019-02-05T09:12:52.287Z,39.43
2019-02-05T09:15:29.094Z,33.57
2019-02-05T09:17:47.716Z,31.53
2019-02-05T09:20:14.552Z,50.80
2019-02-05T09:22:41.295Z,39.83
2019-02-05T09:25:08.035Z,32.10
2019-02-05T09:27:34.888Z,30.83
2019-02-05T09:30:01.720Z,35.37
2019-02-05T09:32:34.926Z,31.23
2019-02-05T09:34:56.948Z,28.13
2019-02-05T09:37:23.779Z,26.60
2019-02-05T09:39:50.729Z,27.90
2019-02-05T09:42:17.869Z,30.62
2019-02-05T09:44:44.871Z,26.65
2019-02-05T09:47:11.661Z,27.15
2019-02-05T09:49:38.601Z,30.50
2019-02-05T09:52:05.373Z,36.30
2019-02-05T09:54:32.176Z,22.95
2019-02-05T09:56:59.323Z,30.45
2019-02-05T09:59:26.517Z,27.07
2019-02-05T10:01:53.324Z,29.95
2019-02-05T10:04:20.162Z,27.15
2019-02-05T10:06:49.923Z,26.10
2019-02-05T10:09:15.598Z,29.20
2019-02-05T10:11:42.628Z,29.00
2019-02-05T10:14:09.476Z,27.20
2019-02-05T10:16:36.424Z,31.87
2019-02-05T10:19:03.583Z,24.87
2019-02-05T10:21:30.619Z,29.52
2019-02-05T10:23:57.343Z,25.43
2019-02-05T10:26:24.084Z,34.98
2019-02-05T10:28:51.256Z,26.52
2019-02-05T10:31:18.081Z,27.80
2019-02-05T10:33:54.975Z,28.20
2019-02-05T10:36:13.611Z,29.10
2019-02-05T10:38:40.338Z,26.77
2019-02-05T10:41:07.588Z,27.30
2019-02-05T10:43:34.435Z,29.35
2019-02-05T10:46:01.281Z,27.67
2019-02-05T10:48:28.015Z,29.98
2019-02-05T10:50:54.754Z,31.40
2019-02-05T10:53:21.595Z,30.82
2019-02-05T10:55:48.546Z,34.67
2019-02-05T10:58:15.280Z,25.17
2019-02-05T11:00:42.435Z,26.37
2019-02-05T11:03:09.367Z,23.62
2019-02-05T11:05:36.329Z,23.67
2019-02-05T11:08:03.362Z,27.15
2019-02-05T11:10:30.108Z,28.73
2019-02-05T11:12:56.952Z,23.35
2019-02-05T11:15:23.996Z,24.25
2019-02-05T11:17:50.844Z,23.67
2019-02-05T11:20:17.685Z,27.20
2019-02-05T11:22:44.831Z,29.65
2019-02-05T11:25:11.675Z,26.68
2019-02-05T11:27:38.535Z,23.47
2019-02-05T11:30:05.358Z,25.97
2019-02-05T11:32:32.082Z,31.97
2019-02-05T11:34:58.829Z,29.50
2019-02-05T11:37:25.688Z,31.57
2019-02-05T11:39:52.518Z,28.77
2019-02-05T11:42:21.226Z,28.07
2019-02-05T11:44:48.138Z,31.23
2019-02-05T11:47:15.094Z,29.13
2019-02-05T11:49:41.820Z,29.27
2019-02-05T11:52:09.878Z,21.13
2019-02-05T11:54:36.737Z,28.63
2019-02-05T11:57:03.679Z,26.37
2019-02-05T11:59:30.528Z,24.47
2019-02-05T12:01:57.376Z,25.63
2019-02-05T12:04:24.526Z,26.85
2019-02-05T12:06:51.656Z,23.75
2019-02-05T12:09:18.519Z,31.65
2019-02-05T12:11:45.244Z,23.52
2019-02-05T12:14:12.181Z,22.52
2019-02-05T12:16:38.920Z,24.85
2019-02-05T12:19:05.777Z,22.65
2019-02-05T12:21:32.730Z,27.27
2019-02-05T12:23:59.841Z,17.70
2019-02-05T12:26:27.008Z,32.43
2019-02-05T12:28:53.847Z,21.57
2019-02-05T12:31:20.587Z,23.17
2019-02-05T12:33:47.329Z,23.23
2019-02-05T12:36:14.182Z,39.80
2019-02-05T12:38:40.913Z,22.37
2019-02-05T12:41:07.643Z,26.10
2019-02-05T12:43:34.494Z,30.20
2019-02-05T12:46:01.227Z,31.73
2019-02-05T12:48:28.181Z,39.33
2019-02-05T12:50:54.913Z,42.47
2019-02-05T12:53:21.872Z,36.20
2019-02-05T12:55:48.709Z,37.50
2019-02-05T12:58:15.547Z,52.03
2019-02-05T13:00:42.397Z,46.83
2019-02-05T13:03:09.130Z,50.50
2019-02-05T13:05:35.991Z,59.53
2019-02-05T13:08:05.320Z,38.13
2019-02-05T13:10:31.493Z,33.93
2019-02-05T13:12:58.336Z,47.93
2019-02-05T13:15:25.078Z,41.23
2019-02-05T13:17:51.817Z,36.93
2019-02-05T13:20:18.544Z,48.10
2019-02-05T13:22:45.295Z,43.20
2019-02-05T13:25:12.341Z,47.50
2019-02-05T13:27:39.188Z,59.07
2019-02-05T13:30:05.943Z,47.67
2019-02-05T13:32:32.774Z,33.97
2019-02-05T13:34:59.491Z,40.87
2019-02-05T13:37:26.191Z,34.03
2019-02-05T13:39:52.972Z,33.37
2019-02-05T13:42:19.706Z,44.47
2019-02-05T13:44:46.457Z,42.37
2019-02-05T13:47:13.196Z,43.63
2019-02-05T13:49:40.045Z,35.37
2019-02-05T13:52:06.886Z,33.10
2019-02-05T13:54:33.721Z,42.50
2019-02-05T13:57:00.663Z,29.97
2019-02-05T13:59:27.509Z,26.93
2019-02-05T14:01:54.658Z,26.20
2019-02-05T14:04:21.505Z,32.47
2019-02-05T14:06:50.453Z,25.33
2019-02-05T14:09:16.833Z,29.63
2019-02-05T14:11:43.555Z,28.87
2019-02-05T14:14:10.361Z,27.10
2019-02-05T14:16:37.136Z,22.57
2019-02-05T14:19:03.881Z,22.57
2019-02-05T14:21:31.030Z,23.97
2019-02-05T14:23:57.758Z,24.10
2019-02-05T14:26:24.613Z,22.23
2019-02-05T14:28:51.340Z,20.70
2019-02-05T14:31:18.089Z,25.77
2019-02-05T14:33:44.932Z,37.63
2019-02-05T14:36:11.865Z,41.87
2019-02-05T14:38:38.727Z,28.10
2019-02-05T14:41:05.649Z,30.67
2019-02-05T14:43:32.400Z,28.07
2019-02-05T14:45:59.127Z,33.37
2019-02-05T14:48:25.865Z,47.23
2019-02-05T14:50:52.715Z,37.10
2019-02-05T14:53:19.666Z,35.70
2019-02-05T14:55:46.525Z,37.13
2019-02-05T14:58:13.241Z,39.77
2019-02-05T15:00:40.086Z,44.50
2019-02-05T15:03:06.814Z,53.63
2019-02-05T15:05:33.562Z,55.80
2019-02-05T15:08:00.305Z,42.47
2019-02-05T15:10:27.148Z,50.67
2019-02-05T15:12:53.903Z,44.13
2019-02-05T15:15:20.893Z,72.73
2019-02-05T15:17:48.079Z,53.37
2019-02-05T15:20:14.828Z,66.67
2019-02-05T15:22:41.661Z,70.80
2019-02-05T15:25:08.413Z,55.37
2019-02-05T15:27:35.242Z,57.53
2019-02-05T15:30:01.969Z,64.97
2019-02-05T15:32:28.699Z,66.60
2019-02-05T15:34:55.847Z,57.97
2019-02-05T15:37:22.663Z,65.47
2019-02-05T15:39:49.497Z,62.07
2019-02-05T15:42:16.605Z,60.07
2019-02-05T15:44:43.692Z,65.87
2019-02-05T15:47:10.862Z,62.77
2019-02-05T15:49:38.004Z,66.17
2019-02-05T15:52:05.133Z,81.53
2019-02-05T15:54:32.640Z,72.43
2019-02-05T15:56:59.537Z,69.57
2019-02-05T15:59:26.330Z,67.83
2019-02-05T16:01:53.073Z,63.87
2019-02-05T16:04:19.801Z,68.10
2019-02-05T16:06:46.554Z,66.20
2019-02-05T16:09:13.289Z,55.47
2019-02-05T16:11:40.130Z,62.27
2019-02-05T16:14:07.415Z,83.80
2019-02-05T16:16:34.214Z,62.53
2019-02-05T16:19:01.076Z,65.70
2019-02-05T16:21:27.910Z,61.37
2019-02-05T16:23:54.637Z,61.20
2019-02-05T16:26:21.388Z,64.00
2019-02-05T16:28:48.126Z,57.87
2019-02-05T16:31:14.855Z,58.40
2019-02-05T16:33:41.916Z,63.77
2019-02-05T16:36:08.642Z,66.97
2019-02-05T16:38:35.392Z,64.43
2019-02-05T16:41:02.230Z,60.23
2019-02-05T16:43:29.378Z,49.40
2019-02-05T16:45:56.108Z,58.97
2019-02-05T16:48:22.849Z,58.77
2019-02-05T16:50:49.806Z,63.23
2019-02-05T16:53:16.548Z,69.87
2019-02-05T16:55:43.390Z,68.07
2019-02-05T16:58:11.430Z,61.17
2019-02-05T17:00:39.152Z,63.20
2019-02-05T17:03:05.958Z,69.47
2019-02-05T17:05:32.901Z,53.47
2019-02-05T17:08:00.142Z,52.90
2019-02-05T17:10:27.190Z,59.40
2019-02-05T17:12:54.144Z,68.47
2019-02-05T17:15:21.936Z,65.33
2019-02-05T17:17:48.854Z,78.33
2019-02-05T17:20:15.692Z,87.00
2019-02-05T17:22:42.531Z,86.50
2019-02-05T17:25:09.269Z,88.47
2019-02-05T17:27:36.109Z,73.17
2019-02-05T17:30:02.850Z,74.27
2019-02-05T17:32:39.733Z,86.27
2019-02-05T17:34:58.070Z,86.13
2019-02-05T17:37:24.811Z,96.00
2019-02-05T17:39:51.642Z,89.20
2019-02-05T17:42:18.393Z,97.43
2019-02-05T17:44:45.136Z,103.47
2019-02-05T17:47:12.067Z,104.17
2019-02-05T17:49:38.814Z,102.23
2019-02-05T17:52:05.599Z,114.10
2019-02-05T17:54:32.395Z,95.60
2019-02-05T17:56:59.137Z,93.03
2019-02-05T17:59:25.867Z,105.30
2019-02-05T18:01:52.607Z,129.00
2019-02-05T18:04:19.444Z,93.40
2019-02-05T18:06:46.502Z,123.23
2019-02-05T18:09:13.233Z,131.57
2019-02-05T18:11:39.973Z,123.90
2019-02-05T18:14:06.700Z,115.23
2019-02-05T18:16:33.563Z,116.80
2019-02-05T18:19:01.279Z,120.77
2019-02-05T18:21:28.059Z,151.03
2019-02-05T18:23:55.010Z,111.83
2019-02-05T18:26:21.749Z,106.17
2019-02-05T18:28:48.582Z,100.63
2019-02-05T18:31:15.318Z,105.60
2019-02-05T18:33:42.045Z,106.70
2019-02-05T18:36:08.807Z,80.57
2019-02-05T18:38:35.535Z,77.83
2019-02-05T18:41:02.376Z,87.93
2019-02-05T18:43:29.435Z,90.80
2019-02-05T18:45:56.168Z,80.97
2019-02-05T18:48:23.014Z,79.20
2019-02-05T18:50:49.747Z,85.73
2019-02-05T18:53:16.597Z,100.70
2019-02-05T18:55:43.340Z,108.57
2019-02-05T18:58:10.125Z,80.70
2019-02-05T19:00:38.779Z,104.97
2019-02-05T19:03:14.821Z,84.80
2019-02-05T19:05:33.978Z,80.80
2019-02-05T19:08:00.718Z,82.67
2019-02-05T19:10:27.450Z,83.60
2019-02-05T19:12:54.300Z,80.07
2019-02-05T19:15:21.042Z,74.10
2019-02-05T19:17:47.870Z,74.00
2019-02-05T19:20:14.625Z,79.77
2019-02-05T19:22:41.661Z,65.40
2019-02-05T19:25:08.406Z,87.27
2019-02-05T19:27:35.138Z,81.27
2019-02-05T19:30:01.991Z,80.67
2019-02-05T19:32:28.727Z,63.10
2019-02-05T19:34:55.569Z,58.00
2019-02-05T19:37:22.305Z,64.23
2019-02-05T19:39:49.563Z,56.67
2019-02-05T19:42:16.402Z,74.60
2019-02-05T19:44:43.138Z,84.43
2019-02-05T19:47:10.093Z,89.93
2019-02-05T19:49:36.924Z,66.87
2019-02-05T19:52:03.867Z,65.33
2019-02-05T19:54:30.714Z,108.67
2019-02-05T19:56:57.438Z,65.00
2019-02-05T19:59:24.573Z,63.70
2019-02-05T20:01:51.337Z,72.93
2019-02-05T20:04:18.182Z,70.10
2019-02-05T20:06:45.026Z,68.27
2019-02-05T20:09:11.866Z,79.20
2019-02-05T20:11:38.801Z,73.53
2019-02-05T20:14:05.653Z,88.97
2019-02-05T20:16:32.517Z,78.37
2019-02-05T20:18:59.528Z,73.67
2019-02-05T20:21:26.271Z,77.20
2019-02-05T20:23:53.120Z,77.20
2019-02-05T20:26:20.264Z,78.90
2019-02-05T20:28:47.009Z,83.87
2019-02-05T20:31:13.854Z,84.43
2019-02-05T20:33:49.736Z,80.73
2019-02-05T20:36:08.929Z,92.73
2019-02-05T20:38:35.757Z,67.90
2019-02-05T20:41:02.761Z,106.90
2019-02-05T20:43:29.909Z,59.73
2019-02-05T20:45:57.038Z,74.83
2019-02-05T20:48:23.886Z,70.97
2019-02-05T20:50:50.651Z,89.60
2019-02-05T20:53:17.566Z,80.10
2019-02-05T20:55:44.410Z,79.03
2019-02-05T20:58:11.155Z,117.20
2019-02-05T21:00:37.898Z,79.30
2019-02-05T21:03:04.766Z,72.00
2019-02-05T21:05:31.895Z,82.13
2019-02-05T21:07:59.034Z,54.27
2019-02-05T21:10:25.737Z,82.87
2019-02-05T21:12:52.523Z,73.67
2019-02-05T21:15:19.250Z,56.23
2019-02-05T21:17:45.980Z,64.57
2019-02-05T21:20:12.773Z,72.77
2019-02-05T21:22:39.561Z,63.67
2019-02-05T21:25:06.301Z,98.27
2019-02-05T21:27:33.650Z,62.90
2019-02-05T21:30:00.516Z,64.47
2019-02-05T21:32:27.441Z,56.00
2019-02-05T21:34:54.189Z,64.77
2019-02-05T21:37:20.929Z,66.97
2019-02-05T21:39:47.771Z,61.57
2019-02-05T21:42:14.702Z,63.80
2019-02-05T21:44:41.554Z,75.73
2019-02-05T21:47:08.692Z,62.20
2019-02-05T21:49:35.431Z,62.23
2019-02-05T21:52:02.290Z,80.13
2019-02-05T21:54:29.130Z,77.23
2019-02-05T21:56:56.029Z,74.37
2019-02-05T21:59:22.911Z,73.20
2019-02-05T22:01:49.752Z,78.23
2019-02-05T22:04:26.697Z,68.13
2019-02-05T22:06:45.281Z,83.60
2019-02-05T22:09:12.324Z,69.80
2019-02-05T22:11:40.979Z,113.87
2019-02-05T22:14:07.651Z,78.93
2019-02-05T22:16:34.654Z,80.37
2019-02-05T22:19:01.641Z,68.37
2019-02-05T22:21:28.882Z,60.43
2019-02-05T22:23:55.579Z,71.57
2019-02-05T22:26:22.382Z,96.43
2019-02-05T22:28:49.612Z,68.57
2019-02-05T22:31:16.365Z,69.80
2019-02-05T22:33:43.201Z,70.27
2019-02-05T22:36:10.135Z,88.33
2019-02-05T22:38:36.932Z,79.77
2019-02-05T22:41:03.927Z,77.13
2019-02-05T22:43:30.669Z,60.23
2019-02-05T22:45:57.513Z,65.20
2019-02-05T22:48:24.502Z,67.10
2019-02-05T22:50:51.614Z,71.67
2019-02-05T22:53:18.448Z,84.97
2019-02-05T22:55:45.222Z,111.47
2019-02-05T22:58:12.150Z,102.33
2019-02-05T23:00:38.973Z,69.70
2019-02-05T23:03:06.014Z,66.77
2019-02-05T23:05:32.755Z,67.23
2019-02-05T23:07:59.654Z,68.00
2019-02-05T23:10:26.536Z,60.07
2019-02-05T23:12:53.373Z,54.37
2019-02-05T23:15:20.216Z,72.43
2019-02-05T23:17:47.466Z,76.07
2019-02-05T23:20:14.211Z,101.83
2019-02-05T23:22:41.056Z,64.60
2019-02-05T23:25:08.002Z,59.03
2019-02-05T23:27:34.847Z,85.73
2019-02-05T23:30:01.574Z,63.13
2019-02-05T23:32:28.320Z,67.27
2019-02-05T23:35:02.222Z,80.17
2019-02-05T23:37:23.875Z,128.87
2019-02-05T23:39:50.711Z,95.87
2019-02-05T23:42:17.893Z,96.63
2019-02-05T23:44:44.682Z,77.33
2019-02-05T23:47:11.518Z,84.93
2019-02-05T23:49:38.254Z,69.43
2019-02-05T23:52:05.006Z,69.93
2019-02-05T23:54:31.837Z,60.37
2019-02-05T23:56:58.570Z,68.07
2019-02-05T23:59:25.423Z,85.43
